createdAt,value
2022-08-07T00:02:37.415Z,46.05
2022-08-07T00:04:59.377Z,46.22
2022-08-07T00:07:27.377Z,45.97
2022-08-07T00:10:19.291Z,46.02
2022-08-07T00:12:56.265Z,46.00
2022-08-07T00:15:38.619Z,45.91
2022-08-07T00:18:19.173Z,45.91
2022-08-07T00:20:49.486Z,46.11
2022-08-07T00:23:16.986Z,46.11
2022-08-07T00:25:45.753Z,45.96
2022-08-07T00:28:22.004Z,45.77
2022-08-07T00:30:49.443Z,45.71
2022-08-07T00:33:16.494Z,45.48
2022-08-07T00:35:49.573Z,45.74
2022-08-07T00:38:16.654Z,45.70
2022-08-07T00:41:02.001Z,45.46
2022-08-07T00:44:00.198Z,45.51
2022-08-07T00:46:15.910Z,45.44
2022-08-07T00:48:43.083Z,45.56
2022-08-07T00:51:10.562Z,45.65
2022-08-07T00:53:39.271Z,45.67
2022-08-07T00:56:30.258Z,45.57
2022-08-07T00:59:02.294Z,45.54
2022-08-07T01:01:29.755Z,45.45
2022-08-07T01:04:11.665Z,45.48
2022-08-07T01:06:51.775Z,45.90
2022-08-07T01:10:04.608Z,45.45
2022-08-07T01:12:29.963Z,45.67
2022-08-07T01:15:01.157Z,45.67
2022-08-07T01:17:31.272Z,45.45
2022-08-07T01:20:16.573Z,45.41
2022-08-07T01:22:58.333Z,45.62
2022-08-07T01:25:54.727Z,46.03
2022-08-07T01:28:19.648Z,46.34
2022-08-07T01:30:47.524Z,46.07
2022-08-07T01:33:18.309Z,46.23
2022-08-07T01:35:54.401Z,46.25
2022-08-07T01:38:32.940Z,46.70
2022-08-07T01:41:02.144Z,46.73
2022-08-07T01:43:34.800Z,46.50
2022-08-07T01:46:05.703Z,46.81
2022-08-07T01:48:36.188Z,46.55
2022-08-07T01:52:02.624Z,46.66
2022-08-07T01:54:11.582Z,46.64
2022-08-07T01:56:57.466Z,46.78
2022-08-07T01:59:31.059Z,46.61
2022-08-07T02:02:07.421Z,46.91
2022-08-07T02:04:55.656Z,46.54
2022-08-07T02:07:45.162Z,46.74
2022-08-07T02:10:18.123Z,46.70
2022-08-07T02:12:50.257Z,46.75
2022-08-07T02:15:22.756Z,46.97
2022-08-07T02:17:52.003Z,46.88
2022-08-07T02:20:23.842Z,46.87
2022-08-07T02:22:59.921Z,46.72
2022-08-07T02:26:10.290Z,46.66
2022-08-07T02:28:24.379Z,46.73
2022-08-07T02:30:53.252Z,46.89
2022-08-07T02:33:20.915Z,46.89
2022-08-07T02:36:29.409Z,46.90
2022-08-07T02:38:38.747Z,47.17
2022-08-07T02:41:08.007Z,47.41
2022-08-07T02:43:39.765Z,47.31
2022-08-07T02:46:09.308Z,47.68
2022-08-07T02:48:36.048Z,47.69
2022-08-07T02:51:07.628Z,47.67
2022-08-07T02:53:56.266Z,47.72
2022-08-07T02:56:28.095Z,47.42
2022-08-07T02:58:55.849Z,47.83
2022-08-07T03:01:36.706Z,47.90
2022-08-07T03:04:12.576Z,47.83
2022-08-07T03:06:44.852Z,47.82
2022-08-07T03:09:14.032Z,47.67
2022-08-07T03:11:52.529Z,47.55
2022-08-07T03:14:25.917Z,47.79
2022-08-07T03:16:57.725Z,47.82
2022-08-07T03:19:28.939Z,47.68
2022-08-07T03:22:06.048Z,47.76
2022-08-07T03:24:36.730Z,47.78
2022-08-07T03:27:09.007Z,47.52
2022-08-07T03:29:46.281Z,47.42
2022-08-07T03:32:20.835Z,47.03
2022-08-07T03:35:01.026Z,46.96
2022-08-07T03:37:53.211Z,47.29
2022-08-07T03:40:23.809Z,46.96
2022-08-07T03:42:58.243Z,46.94
2022-08-07T03:45:30.794Z,46.81
2022-08-07T03:47:59.191Z,46.73
2022-08-07T03:50:28.393Z,46.95
2022-08-07T03:52:58.769Z,46.84
2022-08-07T03:55:58.488Z,46.95
2022-08-07T03:59:04.744Z,46.76
2022-08-07T04:01:01.977Z,46.51
2022-08-07T04:03:29.311Z,46.56
2022-08-07T04:06:36.292Z,46.53
2022-08-07T04:09:04.380Z,46.89
2022-08-07T04:12:23.498Z,46.59
2022-08-07T04:14:37.690Z,46.45
2022-08-07T04:17:19.890Z,46.12
2022-08-07T04:19:52.745Z,46.21
2022-08-07T04:22:28.494Z,46.04
2022-08-07T04:24:58.376Z,45.29
2022-08-07T04:27:26.503Z,45.40
2022-08-07T04:30:02.285Z,45.49
2022-08-07T04:32:34.336Z,45.20
2022-08-07T04:35:11.468Z,44.56
2022-08-07T04:38:03.587Z,44.66
2022-08-07T04:40:30.028Z,44.53
2022-08-07T04:43:01.764Z,44.69
2022-08-07T04:46:00.231Z,44.08
2022-08-07T04:48:44.598Z,44.09
2022-08-07T04:51:54.716Z,44.18
2022-08-07T04:54:55.091Z,43.96
2022-08-07T04:58:13.809Z,43.89
2022-08-07T05:01:01.050Z,43.58
2022-08-07T05:04:06.704Z,43.40
2022-08-07T05:06:59.113Z,43.09
2022-08-07T05:09:46.130Z,43.09
2022-08-07T05:12:26.900Z,42.91
2022-08-07T05:15:21.745Z,42.81
2022-08-07T05:18:00.822Z,42.42
2022-08-07T05:20:37.278Z,42.13
2022-08-07T05:23:30.132Z,42.07
2022-08-07T05:26:11.671Z,42.15
2022-08-07T05:28:48.752Z,42.07
2022-08-07T05:31:19.891Z,41.82
2022-08-07T05:34:01.356Z,41.37
2022-08-07T05:36:35.661Z,41.08
2022-08-07T05:39:09.002Z,40.74
2022-08-07T05:42:02.262Z,40.43
2022-08-07T05:44:35.579Z,40.44
2022-08-07T05:47:18.771Z,40.11
2022-08-07T05:49:50.737Z,38.74
2022-08-07T05:52:20.355Z,37.76
2022-08-07T05:54:55.843Z,36.82
2022-08-07T05:57:30.287Z,35.90
2022-08-07T06:00:02.255Z,36.38
2022-08-07T06:02:35.698Z,36.32
2022-08-07T06:05:09.297Z,36.07
2022-08-07T06:08:13.318Z,36.35
2022-08-07T06:10:27.416Z,36.60
2022-08-07T06:12:54.649Z,37.72
2022-08-07T06:15:42.435Z,37.64
2022-08-07T06:18:13.994Z,38.21
2022-08-07T06:20:51.102Z,38.26
2022-08-07T06:24:36.776Z,37.88
2022-08-07T06:26:16.887Z,35.63
2022-08-07T06:28:54.774Z,36.33
2022-08-07T06:31:38.319Z,37.78
2022-08-07T06:34:05.881Z,38.72
2022-08-07T06:36:35.187Z,38.09
2022-08-07T06:40:17.163Z,37.27
2022-08-07T06:42:04.761Z,37.30
2022-08-07T06:44:34.080Z,38.11
2022-08-07T06:47:10.332Z,39.16
2022-08-07T06:49:51.503Z,39.74
2022-08-07T06:52:31.638Z,40.07
2022-08-07T06:55:33.997Z,40.32
2022-08-07T06:57:56.951Z,40.95
2022-08-07T07:00:25.376Z,40.89
2022-08-07T07:03:00.881Z,40.98
2022-08-07T07:06:02.763Z,40.78
2022-08-07T07:08:31.137Z,40.25
2022-08-07T07:11:01.722Z,40.33
2022-08-07T07:13:57.986Z,36.78
2022-08-07T07:16:34.025Z,35.06
2022-08-07T07:19:54.638Z,35.02
2022-08-07T07:22:04.743Z,35.37
2022-08-07T07:24:43.186Z,34.18
2022-08-07T07:27:26.840Z,29.01
2022-08-07T07:30:08.904Z,28.55
2022-08-07T07:32:43.635Z,24.41
2022-08-07T07:35:13.522Z,23.49
2022-08-07T07:37:47.228Z,22.57
2022-08-07T07:40:19.764Z,24.84
2022-08-07T07:42:51.359Z,23.97
2022-08-07T07:46:40.342Z,19.58
2022-08-07T07:48:35.313Z,17.02
2022-08-07T07:51:07.810Z,21.08
2022-08-07T07:53:50.380Z,20.37
2022-08-07T07:56:30.335Z,18.76
2022-08-07T07:59:00.360Z,20.85
2022-08-07T08:02:01.610Z,23.42
2022-08-07T08:04:17.531Z,25.33
2022-08-07T08:06:51.990Z,23.61
2022-08-07T08:09:23.053Z,19.94
2022-08-07T08:12:02.986Z,17.32
2022-08-07T08:14:36.168Z,15.32
2022-08-07T08:18:36.585Z,14.57
2022-08-07T08:20:17.628Z,13.94
2022-08-07T08:23:00.446Z,13.35
2022-08-07T08:25:49.219Z,12.42
2022-08-07T08:28:24.169Z,11.79
2022-08-07T08:31:05.412Z,10.50
2022-08-07T08:33:34.453Z,10.08
2022-08-07T08:36:01.903Z,9.58
2022-08-07T08:38:38.144Z,9.77
2022-08-07T08:41:16.877Z,10.43
2022-08-07T08:44:04.397Z,10.52
2022-08-07T08:46:53.630Z,10.67
2022-08-07T08:49:32.949Z,10.32
2022-08-07T08:52:14.081Z,10.34
2022-08-07T08:54:55.580Z,11.65
2022-08-07T08:57:42.725Z,10.68
2022-08-07T09:00:12.347Z,11.42
2022-08-07T09:02:39.254Z,11.44
2022-08-07T09:05:10.258Z,10.84
2022-08-07T09:07:46.555Z,10.83
2022-08-07T09:10:29.339Z,11.34
2022-08-07T09:12:56.767Z,12.46
2022-08-07T09:16:22.504Z,13.02
2022-08-07T09:18:41.721Z,14.92
2022-08-07T09:21:33.784Z,15.54
2022-08-07T09:24:31.901Z,16.60
2022-08-07T09:26:50.923Z,16.51
2022-08-07T09:30:02.017Z,15.67
2022-08-07T09:32:32.387Z,14.61
2022-08-07T09:35:04.642Z,14.12
2022-08-07T09:38:04.476Z,12.56
2022-08-07T09:40:46.241Z,11.45
2022-08-07T09:43:40.326Z,11.49
2022-08-07T09:47:49.845Z,13.84
2022-08-07T09:49:59.839Z,16.34
2022-08-07T09:52:33.361Z,17.85
2022-08-07T09:56:02.737Z,19.11
2022-08-07T09:58:42.259Z,20.61
2022-08-07T10:01:14.929Z,21.23
2022-08-07T10:04:14.963Z,22.47
2022-08-07T10:06:56.830Z,23.46
2022-08-07T10:09:42.530Z,23.66
2022-08-07T10:12:18.159Z,24.74
2022-08-07T10:14:57.608Z,24.44
2022-08-07T10:18:01.313Z,25.05
2022-08-07T10:20:35.772Z,25.34
2022-08-07T10:24:05.311Z,25.83
2022-08-07T10:26:29.331Z,26.13
2022-08-07T10:28:58.011Z,25.89
2022-08-07T10:31:57.289Z,25.92
2022-08-07T10:34:37.489Z,25.86
2022-08-07T10:37:12.451Z,25.66
2022-08-07T10:40:05.320Z,25.66
2022-08-07T10:42:51.700Z,26.12
2022-08-07T10:45:57.178Z,26.54
2022-08-07T10:48:18.680Z,26.59
2022-08-07T10:50:50.351Z,26.57
2022-08-07T10:53:23.633Z,26.76
2022-08-07T10:56:03.313Z,26.46
2022-08-07T10:58:46.040Z,26.63
2022-08-07T11:01:35.823Z,27.07
2022-08-07T11:04:32.313Z,26.96
2022-08-07T11:07:15.034Z,27.24
2022-08-07T11:10:08.004Z,27.22
2022-08-07T11:12:45.591Z,26.84
2022-08-07T11:15:20.951Z,26.96
2022-08-07T11:18:04.668Z,27.05
2022-08-07T11:20:43.281Z,27.12
2022-08-07T11:23:30.503Z,26.70
2022-08-07T11:26:22.361Z,26.06
2022-08-07T11:28:55.280Z,26.12
2022-08-07T11:31:33.288Z,25.94
2022-08-07T11:34:06.539Z,27.16
2022-08-07T11:36:37.168Z,29.75
2022-08-07T11:39:07.295Z,31.14
2022-08-07T11:42:01.904Z,32.24
2022-08-07T11:44:40.308Z,33.09
2022-08-07T11:47:19.735Z,34.02
2022-08-07T11:50:31.408Z,34.59
2022-08-07T11:53:06.178Z,35.75
2022-08-07T11:56:13.936Z,35.64
2022-08-07T11:58:33.364Z,35.97
2022-08-07T12:01:20.285Z,36.71
2022-08-07T12:04:06.942Z,37.23
2022-08-07T12:06:51.584Z,37.87
2022-08-07T12:09:42.641Z,38.61
2022-08-07T12:12:17.743Z,39.28
2022-08-07T12:14:56.198Z,39.30
2022-08-07T12:17:33.936Z,38.86
2022-08-07T12:20:20.063Z,38.90
2022-08-07T12:23:21.484Z,38.33
2022-08-07T12:26:34.449Z,37.81
2022-08-07T12:29:13.123Z,37.75
2022-08-07T12:32:04.218Z,38.05
2022-08-07T12:34:38.318Z,38.83
2022-08-07T12:37:08.340Z,39.66
2022-08-07T12:39:50.487Z,39.91
2022-08-07T12:42:22.793Z,41.49
2022-08-07T12:44:55.402Z,43.05
2022-08-07T12:47:30.545Z,43.86
2022-08-07T12:50:04.687Z,44.68
2022-08-07T12:52:35.014Z,44.84
2022-08-07T12:55:21.054Z,44.50
2022-08-07T12:58:00.617Z,44.23
2022-08-07T13:01:01.387Z,44.77
2022-08-07T13:04:02.623Z,44.97
2022-08-07T13:07:00.894Z,45.44
2022-08-07T13:10:36.722Z,45.28
2022-08-07T13:12:37.264Z,45.43
2022-08-07T13:15:23.587Z,45.02
2022-08-07T13:18:08.088Z,45.14
2022-08-07T13:20:44.602Z,45.53
2022-08-07T13:24:01.729Z,45.49
2022-08-07T13:26:27.395Z,45.65
2022-08-07T13:29:03.586Z,45.85
2022-08-07T13:31:54.925Z,45.62
2022-08-07T13:34:37.717Z,45.68
2022-08-07T13:37:30.546Z,45.25
2022-08-07T13:40:35.840Z,45.31
2022-08-07T13:42:55.366Z,45.46
2022-08-07T13:46:11.712Z,45.85
2022-08-07T13:48:27.345Z,45.83
2022-08-07T13:51:01.705Z,45.62
2022-08-07T13:53:59.766Z,45.99
2022-08-07T13:56:35.848Z,45.96
2022-08-07T13:59:15.845Z,46.08
2022-08-07T14:02:03.729Z,45.76
2022-08-07T14:04:36.370Z,45.44
2022-08-07T14:07:09.542Z,45.17
2022-08-07T14:10:12.499Z,45.21
2022-08-07T14:12:41.651Z,44.93
2022-08-07T14:15:18.550Z,44.88
2022-08-07T14:18:15.858Z,45.01
2022-08-07T14:20:41.712Z,45.10
2022-08-07T14:23:13.858Z,44.65
2022-08-07T14:25:48.212Z,45.05
2022-08-07T14:28:17.008Z,44.86
2022-08-07T14:30:52.321Z,44.83
2022-08-07T14:33:22.290Z,44.83
2022-08-07T14:35:55.587Z,44.72
2022-08-07T14:38:30.427Z,45.02
2022-08-07T14:41:12.424Z,45.15
2022-08-07T14:43:58.526Z,44.48
2022-08-07T14:46:33.157Z,44.68
2022-08-07T14:49:55.724Z,45.09
2022-08-07T14:57:36.334Z,45.29
2022-08-07T15:00:20.622Z,44.53
2022-08-07T15:02:56.687Z,44.61
2022-08-07T15:05:24.402Z,44.80
2022-08-07T15:07:52.726Z,44.70
2022-08-07T15:10:26.049Z,44.74
2022-08-07T15:13:11.383Z,44.59
2022-08-07T15:15:42.193Z,44.73
2022-08-07T15:21:08.210Z,44.97
2022-08-07T15:25:15.571Z,44.86
2022-08-07T15:26:32.115Z,44.31
2022-08-07T15:30:10.104Z,44.34
2022-08-07T15:32:01.958Z,44.15
2022-08-07T15:34:35.453Z,43.93
2022-08-07T15:37:07.076Z,43.84
2022-08-07T15:39:56.899Z,44.01
2022-08-07T15:45:24.141Z,43.78
2022-08-07T15:48:12.658Z,43.62
2022-08-07T15:51:02.090Z,43.69
2022-08-07T15:53:52.106Z,43.96
2022-08-07T15:56:24.834Z,43.92
2022-08-07T15:58:59.289Z,44.18
2022-08-07T16:01:38.752Z,44.30
2022-08-07T16:04:15.189Z,44.46
2022-08-07T16:06:51.150Z,44.58
2022-08-07T16:09:22.787Z,44.63
2022-08-07T16:12:13.830Z,44.81
2022-08-07T16:15:07.682Z,44.88
2022-08-07T16:18:01.865Z,45.11
2022-08-07T16:21:42.969Z,45.50
2022-08-07T16:23:54.246Z,45.54
2022-08-07T16:26:30.874Z,46.06
2022-08-07T16:30:09.076Z,45.95
2022-08-07T16:32:33.008Z,46.23
2022-08-07T16:34:57.192Z,46.55
2022-08-07T16:38:07.466Z,46.75
2022-08-07T16:40:57.006Z,46.54
2022-08-07T16:44:06.157Z,46.71
2022-08-07T16:50:29.197Z,46.78
2022-08-07T16:52:50.794Z,46.97
2022-08-07T16:55:20.644Z,46.88
2022-08-07T16:58:01.492Z,46.92
2022-08-07T17:00:39.541Z,47.38
2022-08-07T17:03:09.763Z,47.20
2022-08-07T17:06:19.790Z,47.48
2022-08-07T17:09:09.932Z,47.57
2022-08-07T17:12:04.705Z,47.25
2022-08-07T17:14:44.045Z,46.99
2022-08-07T17:17:28.213Z,47.05
2022-08-07T17:20:31.529Z,47.51
2022-08-07T17:23:08.567Z,47.41
2022-08-07T17:25:52.202Z,47.43
2022-08-07T17:28:32.743Z,47.47
2022-08-07T17:31:16.958Z,47.57
2022-08-07T17:34:15.602Z,47.78
2022-08-07T17:36:57.896Z,47.65
2022-08-07T17:40:03.111Z,47.56
2022-08-07T17:42:59.096Z,47.86
2022-08-07T17:45:52.709Z,47.97
2022-08-07T17:48:30.401Z,47.82
2022-08-07T17:52:00.962Z,48.01
2022-08-07T17:54:39.881Z,47.97
2022-08-07T17:57:58.939Z,47.83
2022-08-07T18:00:33.401Z,47.91
2022-08-07T18:03:18.531Z,47.81
2022-08-07T18:06:01.456Z,48.12
2022-08-07T18:08:36.358Z,48.34
2022-08-07T18:12:07.563Z,48.73
2022-08-07T18:14:28.557Z,48.78
2022-08-07T18:16:59.193Z,49.03
2022-08-07T18:21:08.442Z,49.17
2022-08-07T18:22:26.342Z,49.54
2022-08-07T18:25:19.491Z,49.75
2022-08-07T18:27:48.377Z,49.77
2022-08-07T18:30:32.563Z,49.87
2022-08-07T18:33:10.686Z,49.89
2022-08-07T18:35:53.767Z,49.76
2022-08-07T18:38:55.109Z,49.86
2022-08-07T18:41:45.653Z,50.03
2022-08-07T18:44:25.549Z,50.41
2022-08-07T18:47:20.988Z,50.52
2022-08-07T18:50:31.423Z,50.98
2022-08-07T18:53:06.148Z,51.15
2022-08-07T18:55:55.523Z,51.74
2022-08-07T18:58:33.418Z,51.85
2022-08-07T19:01:03.787Z,52.06
2022-08-07T19:03:39.149Z,52.04
2022-08-07T19:06:16.378Z,52.05
2022-08-07T19:08:47.284Z,51.73
2022-08-07T19:11:35.945Z,51.73
2022-08-07T19:14:07.916Z,52.26
2022-08-07T19:17:04.892Z,52.51
2022-08-07T19:19:53.530Z,52.54
2022-08-07T19:22:30.710Z,52.19
2022-08-07T19:24:58.966Z,52.56
2022-08-07T19:28:58.448Z,52.56
2022-08-07T19:31:03.119Z,52.77
2022-08-07T19:33:13.231Z,52.86
2022-08-07T19:35:43.703Z,52.64
2022-08-07T19:38:15.884Z,52.69
2022-08-07T19:40:50.556Z,52.98
2022-08-07T19:43:43.749Z,52.92
2022-08-07T19:46:19.299Z,52.86
2022-08-07T19:48:54.199Z,52.96
2022-08-07T19:51:52.268Z,52.91
2022-08-07T19:54:33.902Z,52.77
2022-08-07T19:58:01.869Z,52.60
2022-08-07T19:59:48.507Z,52.66
2022-08-07T20:02:29.235Z,52.59
2022-08-07T20:04:56.767Z,52.48
2022-08-07T20:07:45.893Z,52.61
2022-08-07T20:10:36.939Z,52.35
2022-08-07T20:13:06.146Z,52.37
2022-08-07T20:15:37.246Z,52.87
2022-08-07T20:18:06.315Z,52.98
2022-08-07T20:20:42.008Z,53.56
2022-08-07T20:23:10.912Z,53.83
2022-08-07T20:26:02.706Z,54.28
2022-08-07T20:28:31.036Z,54.08
2022-08-07T20:30:58.822Z,54.60
2022-08-07T20:33:36.613Z,54.70
2022-08-07T20:36:07.257Z,54.60
2022-08-07T20:38:34.966Z,54.78
2022-08-07T20:41:03.959Z,54.87
2022-08-07T20:43:33.697Z,55.47
2022-08-07T20:46:28.565Z,55.64
2022-08-07T20:49:02.427Z,55.93
2022-08-07T20:51:40.353Z,56.23
2022-08-07T20:54:30.306Z,56.73
2022-08-07T20:57:03.812Z,56.74
2022-08-07T21:00:08.016Z,57.36
2022-08-07T21:02:53.288Z,57.41
2022-08-07T21:05:25.789Z,57.66
2022-08-07T21:08:16.632Z,57.74
2022-08-07T21:10:49.509Z,58.02
2022-08-07T21:13:19.061Z,58.18
2022-08-07T21:16:00.473Z,58.46
2022-08-07T21:18:33.827Z,58.89
2022-08-07T21:21:01.758Z,59.24
2022-08-07T21:23:42.837Z,59.33
2022-08-07T21:26:35.614Z,59.83
2022-08-07T21:29:07.437Z,60.15
2022-08-07T21:32:47.534Z,60.49
2022-08-07T21:35:01.505Z,60.54
2022-08-07T21:37:57.863Z,60.80
2022-08-07T21:40:39.229Z,60.84
2022-08-07T21:43:11.025Z,61.05
2022-08-07T21:46:09.720Z,61.11
2022-08-07T21:48:42.527Z,61.12
2022-08-07T21:51:33.808Z,61.31
2022-08-07T21:54:36.044Z,61.50
2022-08-07T21:57:39.803Z,61.41
2022-08-07T22:00:22.268Z,61.66
2022-08-07T22:03:08.507Z,61.76
2022-08-07T22:05:53.853Z,61.91
2022-08-07T22:08:23.376Z,61.95
2022-08-07T22:10:54.003Z,62.13
2022-08-07T22:13:24.651Z,62.12
2022-08-07T22:16:39.515Z,62.09
2022-08-07T22:19:29.531Z,61.89
2022-08-07T22:22:20.919Z,61.89
2022-08-07T22:25:08.309Z,62.08
2022-08-07T22:28:29.559Z,62.03
2022-08-07T22:30:33.991Z,62.12
2022-08-07T22:33:04.799Z,62.23
2022-08-07T22:35:44.011Z,62.29
2022-08-07T22:38:20.438Z,62.41
2022-08-07T22:40:57.132Z,62.17
2022-08-07T22:43:45.069Z,62.00
2022-08-07T22:47:02.301Z,62.12
2022-08-07T22:49:12.698Z,62.18
2022-08-07T22:51:49.253Z,62.44
2022-08-07T22:54:33.782Z,62.80
2022-08-07T22:57:16.874Z,62.54
2022-08-07T22:59:52.872Z,62.27
2022-08-07T23:02:39.839Z,62.05
2022-08-07T23:06:10.341Z,62.04
2022-08-07T23:08:42.087Z,62.07
2022-08-07T23:11:35.252Z,62.08
2022-08-07T23:14:26.686Z,62.03
2022-08-07T23:17:04.467Z,61.80
2022-08-07T23:19:59.882Z,61.70
2022-08-07T23:22:32.741Z,61.57
2022-08-07T23:25:04.604Z,61.43
2022-08-07T23:28:20.283Z,61.33
2022-08-07T23:30:43.325Z,61.16
2022-08-07T23:34:35.499Z,61.27
2022-08-07T23:36:54.723Z,61.46
2022-08-07T23:39:55.749Z,61.65
2022-08-07T23:42:58.244Z,62.03
2022-08-07T23:45:32.980Z,63.22
2022-08-07T23:48:17.296Z,63.61
2022-08-07T23:50:47.055Z,63.69
2022-08-07T23:53:17.573Z,64.12
2022-08-07T23:55:55.625Z,64.44
2022-08-07T23:58:29.767Z,64.61
